sensor_id;sensor_type;location;lat;lon;timestamp;temperature;humidity
26541;DHT22;14206;50.202;10.948;2023-05-07T00:01:34;14.40;90.60
26541;DHT22;14206;50.202;10.948;2023-05-07T00:04:01;14.40;90.40
26541;DHT22;14206;50.202;10.948;2023-05-07T00:10:06;14.40;90.70
26541;DHT22;14206;50.202;10.948;2023-05-07T00:12:33;14.30;91.00
26541;DHT22;14206;50.202;10.948;2023-05-07T00:15:02;14.30;91.00
26541;DHT22;14206;50.202;10.948;2023-05-07T00:17:29;14.30;91.20
26541;DHT22;14206;50.202;10.948;2023-05-07T00:19:56;14.30;91.00
26541;DHT22;14206;50.202;10.948;2023-05-07T00:22:23;14.30;91.30
26541;DHT22;14206;50.202;10.948;2023-05-07T00:24:50;14.20;91.30
26541;DHT22;14206;50.202;10.948;2023-05-07T00:27:17;14.20;91.20
26541;DHT22;14206;50.202;10.948;2023-05-07T00:29:43;14.20;91.40
26541;DHT22;14206;50.202;10.948;2023-05-07T00:32:10;14.20;91.60
26541;DHT22;14206;50.202;10.948;2023-05-07T00:34:37;14.20;91.90
26541;DHT22;14206;50.202;10.948;2023-05-07T00:37:06;14.20;91.60
26541;DHT22;14206;50.202;10.948;2023-05-07T00:39:35;14.20;91.90
26541;DHT22;14206;50.202;10.948;2023-05-07T00:42:02;14.10;92.00
26541;DHT22;14206;50.202;10.948;2023-05-07T00:44:29;14.10;92.00
26541;DHT22;14206;50.202;10.948;2023-05-07T00:47:02;14.10;91.70
26541;DHT22;14206;50.202;10.948;2023-05-07T00:49:42;14.10;91.90
26541;DHT22;14206;50.202;10.948;2023-05-07T00:52:14;14.10;91.70
26541;DHT22;14206;50.202;10.948;2023-05-07T00:54:51;14.10;92.30
26541;DHT22;14206;50.202;10.948;2023-05-07T00:57:18;14.00;92.60
26541;DHT22;14206;50.202;10.948;2023-05-07T00:59:45;14.00;92.70
26541;DHT22;14206;50.202;10.948;2023-05-07T01:02:12;14.00;92.60
26541;DHT22;14206;50.202;10.948;2023-05-07T01:04:39;14.00;92.60
26541;DHT22;14206;50.202;10.948;2023-05-07T01:07:07;13.90;92.90
26541;DHT22;14206;50.202;10.948;2023-05-07T01:09:35;13.90;92.60
26541;DHT22;14206;50.202;10.948;2023-05-07T01:12:06;13.90;92.60
26541;DHT22;14206;50.202;10.948;2023-05-07T01:14:34;13.90;92.80
26541;DHT22;14206;50.202;10.948;2023-05-07T01:17:01;13.90;92.50
26541;DHT22;14206;50.202;10.948;2023-05-07T01:19:29;13.90;92.80
26541;DHT22;14206;50.202;10.948;2023-05-07T01:22:03;13.90;92.50
26541;DHT22;14206;50.202;10.948;2023-05-07T01:24:36;13.90;92.70
26541;DHT22;14206;50.202;10.948;2023-05-07T01:27:04;13.90;92.60
26541;DHT22;14206;50.202;10.948;2023-05-07T01:29:33;13.90;92.40
26541;DHT22;14206;50.202;10.948;2023-05-07T01:32:01;13.90;92.40
26541;DHT22;14206;50.202;10.948;2023-05-07T01:34:31;13.90;92.30
26541;DHT22;14206;50.202;10.948;2023-05-07T01:36:59;13.90;92.40
26541;DHT22;14206;50.202;10.948;2023-05-07T01:39:27;13.90;92.30
26541;DHT22;14206;50.202;10.948;2023-05-07T01:41:58;13.80;92.40
26541;DHT22;14206;50.202;10.948;2023-05-07T01:44:40;13.80;92.20
26541;DHT22;14206;50.202;10.948;2023-05-07T01:47:08;13.80;92.30
26541;DHT22;14206;50.202;10.948;2023-05-07T01:49:35;13.80;92.40
26541;DHT22;14206;50.202;10.948;2023-05-07T01:52:02;13.80;92.60
26541;DHT22;14206;50.202;10.948;2023-05-07T01:54:30;13.70;92.60
26541;DHT22;14206;50.202;10.948;2023-05-07T01:56:59;13.70;92.60
26541;DHT22;14206;50.202;10.948;2023-05-07T01:59:26;13.70;92.70
26541;DHT22;14206;50.202;10.948;2023-05-07T02:01:53;13.60;92.80
26541;DHT22;14206;50.202;10.948;2023-05-07T02:04:20;13.60;92.60
26541;DHT22;14206;50.202;10.948;2023-05-07T02:06:48;13.50;92.50
26541;DHT22;14206;50.202;10.948;2023-05-07T02:09:26;13.50;92.50
26541;DHT22;14206;50.202;10.948;2023-05-07T02:11:54;13.40;92.30
26541;DHT22;14206;50.202;10.948;2023-05-07T02:14:21;13.40;92.80
26541;DHT22;14206;50.202;10.948;2023-05-07T02:16:48;13.30;93.00
26541;DHT22;14206;50.202;10.948;2023-05-07T02:19:15;13.20;93.30
26541;DHT22;14206;50.202;10.948;2023-05-07T02:21:42;13.10;93.60
26541;DHT22;14206;50.202;10.948;2023-05-07T02:24:09;13.10;93.90
26541;DHT22;14206;50.202;10.948;2023-05-07T02:26:36;13.00;93.90
26541;DHT22;14206;50.202;10.948;2023-05-07T02:29:03;13.00;93.80
26541;DHT22;14206;50.202;10.948;2023-05-07T02:31:30;12.90;94.20
26541;DHT22;14206;50.202;10.948;2023-05-07T02:33:57;12.90;94.30
26541;DHT22;14206;50.202;10.948;2023-05-07T02:36:24;12.90;94.30
26541;DHT22;14206;50.202;10.948;2023-05-07T02:38:56;12.90;94.40
26541;DHT22;14206;50.202;10.948;2023-05-07T02:41:23;12.90;94.30
26541;DHT22;14206;50.202;10.948;2023-05-07T02:43:50;12.90;94.30
26541;DHT22;14206;50.202;10.948;2023-05-07T02:46:17;12.90;94.00
26541;DHT22;14206;50.202;10.948;2023-05-07T02:48:49;12.90;94.00
26541;DHT22;14206;50.202;10.948;2023-05-07T02:51:21;13.00;94.20
26541;DHT22;14206;50.202;10.948;2023-05-07T02:53:53;13.00;94.20
26541;DHT22;14206;50.202;10.948;2023-05-07T02:56:20;13.00;94.10
26541;DHT22;14206;50.202;10.948;2023-05-07T02:58:47;13.00;94.00
26541;DHT22;14206;50.202;10.948;2023-05-07T03:01:16;13.00;94.20
26541;DHT22;14206;50.202;10.948;2023-05-07T03:03:52;13.00;94.10
26541;DHT22;14206;50.202;10.948;2023-05-07T03:06:19;13.00;94.00
26541;DHT22;14206;50.202;10.948;2023-05-07T03:08:46;13.00;93.90
26541;DHT22;14206;50.202;10.948;2023-05-07T03:11:13;13.00;93.70
26541;DHT22;14206;50.202;10.948;2023-05-07T03:13:39;13.00;93.70
26541;DHT22;14206;50.202;10.948;2023-05-07T03:16:06;13.00;93.60
26541;DHT22;14206;50.202;10.948;2023-05-07T03:18:33;13.00;93.50
26541;DHT22;14206;50.202;10.948;2023-05-07T03:21:00;13.00;93.50
26541;DHT22;14206;50.202;10.948;2023-05-07T03:23:27;13.00;93.30
26541;DHT22;14206;50.202;10.948;2023-05-07T03:25:54;13.00;93.20
26541;DHT22;14206;50.202;10.948;2023-05-07T03:28:21;13.00;93.60
26541;DHT22;14206;50.202;10.948;2023-05-07T03:30:53;12.90;93.60
26541;DHT22;14206;50.202;10.948;2023-05-07T03:33:19;12.90;93.60
26541;DHT22;14206;50.202;10.948;2023-05-07T03:35:47;12.90;93.80
26541;DHT22;14206;50.202;10.948;2023-05-07T03:38:19;12.80;93.80
26541;DHT22;14206;50.202;10.948;2023-05-07T03:40:46;12.80;94.00
26541;DHT22;14206;50.202;10.948;2023-05-07T03:43:13;12.80;94.20
26541;DHT22;14206;50.202;10.948;2023-05-07T03:45:45;12.70;94.20
26541;DHT22;14206;50.202;10.948;2023-05-07T03:48:18;12.80;94.10
26541;DHT22;14206;50.202;10.948;2023-05-07T03:50:46;12.80;94.10
26541;DHT22;14206;50.202;10.948;2023-05-07T03:53:16;12.80;94.00
26541;DHT22;14206;50.202;10.948;2023-05-07T03:55:42;12.80;94.00
26541;DHT22;14206;50.202;10.948;2023-05-07T03:58:09;12.80;93.90
26541;DHT22;14206;50.202;10.948;2023-05-07T04:00:37;12.80;93.70
26541;DHT22;14206;50.202;10.948;2023-05-07T04:03:22;12.80;93.50
26541;DHT22;14206;50.202;10.948;2023-05-07T04:05:49;12.80;93.50
26541;DHT22;14206;50.202;10.948;2023-05-07T04:08:16;12.80;93.50
26541;DHT22;14206;50.202;10.948;2023-05-07T04:10:53;12.80;93.50
26541;DHT22;14206;50.202;10.948;2023-05-07T04:13:20;12.80;93.20
26541;DHT22;14206;50.202;10.948;2023-05-07T04:15:47;12.70;93.40
26541;DHT22;14206;50.202;10.948;2023-05-07T04:18:17;12.70;93.30
26541;DHT22;14206;50.202;10.948;2023-05-07T04:20:46;12.70;93.40
26541;DHT22;14206;50.202;10.948;2023-05-07T04:23:14;12.80;93.20
26541;DHT22;14206;50.202;10.948;2023-05-07T04:25:41;12.80;93.20
26541;DHT22;14206;50.202;10.948;2023-05-07T04:28:31;12.70;93.30
26541;DHT22;14206;50.202;10.948;2023-05-07T04:30:58;12.70;93.10
26541;DHT22;14206;50.202;10.948;2023-05-07T04:33:25;12.70;93.20
26541;DHT22;14206;50.202;10.948;2023-05-07T04:35:54;12.80;93.50
26541;DHT22;14206;50.202;10.948;2023-05-07T04:38:21;12.80;93.00
26541;DHT22;14206;50.202;10.948;2023-05-07T04:40:49;12.90;92.70
26541;DHT22;14206;50.202;10.948;2023-05-07T04:43:20;12.90;92.80
26541;DHT22;14206;50.202;10.948;2023-05-07T04:45:52;13.00;92.70
26541;DHT22;14206;50.202;10.948;2023-05-07T04:48:22;13.10;92.90
26541;DHT22;14206;50.202;10.948;2023-05-07T04:50:50;13.20;92.40
26541;DHT22;14206;50.202;10.948;2023-05-07T04:53:18;13.30;91.80
26541;DHT22;14206;50.202;10.948;2023-05-07T04:55:45;13.40;91.50
26541;DHT22;14206;50.202;10.948;2023-05-07T04:58:13;13.50;91.30
26541;DHT22;14206;50.202;10.948;2023-05-07T05:00:41;13.50;91.00
26541;DHT22;14206;50.202;10.948;2023-05-07T05:03:10;13.60;90.70
26541;DHT22;14206;50.202;10.948;2023-05-07T05:05:38;13.60;90.60
26541;DHT22;14206;50.202;10.948;2023-05-07T05:08:05;13.70;90.20
26541;DHT22;14206;50.202;10.948;2023-05-07T05:10:35;13.70;89.90
26541;DHT22;14206;50.202;10.948;2023-05-07T05:13:02;13.70;89.90
26541;DHT22;14206;50.202;10.948;2023-05-07T05:15:29;13.70;90.20
26541;DHT22;14206;50.202;10.948;2023-05-07T05:17:59;13.70;90.00
26541;DHT22;14206;50.202;10.948;2023-05-07T05:20:27;13.70;90.20
26541;DHT22;14206;50.202;10.948;2023-05-07T05:22:54;13.70;90.40
26541;DHT22;14206;50.202;10.948;2023-05-07T05:25:21;13.80;89.90
26541;DHT22;14206;50.202;10.948;2023-05-07T05:27:48;14.00;89.50
26541;DHT22;14206;50.202;10.948;2023-05-07T05:30:15;14.10;89.30
26541;DHT22;14206;50.202;10.948;2023-05-07T05:32:44;14.20;89.20
26541;DHT22;14206;50.202;10.948;2023-05-07T05:35:12;14.20;88.50
26541;DHT22;14206;50.202;10.948;2023-05-07T05:37:40;14.30;88.60
26541;DHT22;14206;50.202;10.948;2023-05-07T05:40:07;14.40;88.00
26541;DHT22;14206;50.202;10.948;2023-05-07T05:42:34;14.50;88.10
26541;DHT22;14206;50.202;10.948;2023-05-07T05:45:02;14.60;87.80
26541;DHT22;14206;50.202;10.948;2023-05-07T05:47:31;14.70;87.90
26541;DHT22;14206;50.202;10.948;2023-05-07T05:49:58;14.90;86.50
26541;DHT22;14206;50.202;10.948;2023-05-07T05:52:25;15.00;85.90
26541;DHT22;14206;50.202;10.948;2023-05-07T05:54:54;15.10;86.80
26541;DHT22;14206;50.202;10.948;2023-05-07T05:57:21;15.30;85.80
26541;DHT22;14206;50.202;10.948;2023-05-07T05:59:48;15.50;85.30
26541;DHT22;14206;50.202;10.948;2023-05-07T06:02:15;15.60;84.70
26541;DHT22;14206;50.202;10.948;2023-05-07T06:04:42;15.70;84.50
26541;DHT22;14206;50.202;10.948;2023-05-07T06:07:12;15.70;84.10
26541;DHT22;14206;50.202;10.948;2023-05-07T06:09:39;15.80;83.50
26541;DHT22;14206;50.202;10.948;2023-05-07T06:12:06;15.80;83.20
26541;DHT22;14206;50.202;10.948;2023-05-07T06:14:33;15.80;83.70
26541;DHT22;14206;50.202;10.948;2023-05-07T06:17:00;15.90;83.50
26541;DHT22;14206;50.202;10.948;2023-05-07T06:19:27;16.00;83.30
26541;DHT22;14206;50.202;10.948;2023-05-07T06:21:56;16.00;83.10
26541;DHT22;14206;50.202;10.948;2023-05-07T06:24:24;16.10;82.00
26541;DHT22;14206;50.202;10.948;2023-05-07T06:26:51;16.10;82.00
26541;DHT22;14206;50.202;10.948;2023-05-07T06:29:18;16.10;82.60
26541;DHT22;14206;50.202;10.948;2023-05-07T06:31:45;16.20;82.30
26541;DHT22;14206;50.202;10.948;2023-05-07T06:34:13;16.20;81.40
26541;DHT22;14206;50.202;10.948;2023-05-07T06:36:42;16.10;82.20
26541;DHT22;14206;50.202;10.948;2023-05-07T06:39:45;16.20;81.40
26541;DHT22;14206;50.202;10.948;2023-05-07T06:42:12;16.20;82.20
26541;DHT22;14206;50.202;10.948;2023-05-07T06:44:41;16.20;82.20
26541;DHT22;14206;50.202;10.948;2023-05-07T06:47:11;16.30;81.90
26541;DHT22;14206;50.202;10.948;2023-05-07T06:49:41;16.30;81.40
26541;DHT22;14206;50.202;10.948;2023-05-07T06:52:08;16.30;81.40
26541;DHT22;14206;50.202;10.948;2023-05-07T06:54:35;16.20;81.00
26541;DHT22;14206;50.202;10.948;2023-05-07T06:57:02;16.20;81.30
26541;DHT22;14206;50.202;10.948;2023-05-07T06:59:29;16.20;81.30
26541;DHT22;14206;50.202;10.948;2023-05-07T07:01:56;16.20;81.30
26541;DHT22;14206;50.202;10.948;2023-05-07T07:04:23;16.20;81.50
26541;DHT22;14206;50.202;10.948;2023-05-07T07:06:59;16.30;81.60
26541;DHT22;14206;50.202;10.948;2023-05-07T07:09:27;16.30;81.10
26541;DHT22;14206;50.202;10.948;2023-05-07T07:11:54;16.40;81.60
26541;DHT22;14206;50.202;10.948;2023-05-07T07:14:21;16.50;81.50
26541;DHT22;14206;50.202;10.948;2023-05-07T07:16:50;16.60;81.00
26541;DHT22;14206;50.202;10.948;2023-05-07T07:19:18;16.60;80.40
26541;DHT22;14206;50.202;10.948;2023-05-07T07:21:49;16.70;80.30
26541;DHT22;14206;50.202;10.948;2023-05-07T07:24:16;16.90;80.30
26541;DHT22;14206;50.202;10.948;2023-05-07T07:26:50;17.00;79.80
26541;DHT22;14206;50.202;10.948;2023-05-07T07:29:18;17.00;79.30
26541;DHT22;14206;50.202;10.948;2023-05-07T07:31:47;17.10;79.80
26541;DHT22;14206;50.202;10.948;2023-05-07T07:34:14;17.20;78.90
26541;DHT22;14206;50.202;10.948;2023-05-07T07:36:42;17.40;79.00
26541;DHT22;14206;50.202;10.948;2023-05-07T07:39:15;17.50;78.10
26541;DHT22;14206;50.202;10.948;2023-05-07T07:41:43;17.60;78.00
26541;DHT22;14206;50.202;10.948;2023-05-07T07:44:11;17.80;78.10
26541;DHT22;14206;50.202;10.948;2023-05-07T07:46:43;18.00;77.40
26541;DHT22;14206;50.202;10.948;2023-05-07T07:49:10;18.20;76.90
26541;DHT22;14206;50.202;10.948;2023-05-07T07:51:37;18.30;76.30
26541;DHT22;14206;50.202;10.948;2023-05-07T07:54:04;18.50;76.70
26541;DHT22;14206;50.202;10.948;2023-05-07T07:56:33;18.80;74.60
26541;DHT22;14206;50.202;10.948;2023-05-07T07:59:02;19.00;75.40
26541;DHT22;14206;50.202;10.948;2023-05-07T08:01:30;19.20;73.90
26541;DHT22;14206;50.202;10.948;2023-05-07T08:03:58;19.50;73.50
26541;DHT22;14206;50.202;10.948;2023-05-07T08:06:26;19.80;72.60
26541;DHT22;14206;50.202;10.948;2023-05-07T08:08:54;20.00;72.10
26541;DHT22;14206;50.202;10.948;2023-05-07T08:11:22;20.20;71.50
26541;DHT22;14206;50.202;10.948;2023-05-07T08:13:50;20.50;70.50
26541;DHT22;14206;50.202;10.948;2023-05-07T08:16:17;20.80;71.30
26541;DHT22;14206;50.202;10.948;2023-05-07T08:18:44;21.20;69.80
26541;DHT22;14206;50.202;10.948;2023-05-07T08:21:11;21.40;67.80
26541;DHT22;14206;50.202;10.948;2023-05-07T08:23:38;21.40;67.10
26541;DHT22;14206;50.202;10.948;2023-05-07T08:26:07;21.30;67.10
26541;DHT22;14206;50.202;10.948;2023-05-07T08:28:35;21.40;66.70
26541;DHT22;14206;50.202;10.948;2023-05-07T08:31:02;21.60;67.20
26541;DHT22;14206;50.202;10.948;2023-05-07T08:33:33;21.70;66.80
26541;DHT22;14206;50.202;10.948;2023-05-07T08:36:00;21.70;66.20
26541;DHT22;14206;50.202;10.948;2023-05-07T08:38:27;21.70;66.20
26541;DHT22;14206;50.202;10.948;2023-05-07T08:40:54;22.00;66.20
26541;DHT22;14206;50.202;10.948;2023-05-07T08:43:21;22.10;65.70
26541;DHT22;14206;50.202;10.948;2023-05-07T08:45:53;22.40;65.00
26541;DHT22;14206;50.202;10.948;2023-05-07T08:48:25;22.60;64.00
26541;DHT22;14206;50.202;10.948;2023-05-07T08:51:00;22.70;63.50
26541;DHT22;14206;50.202;10.948;2023-05-07T08:53:27;22.80;64.00
26541;DHT22;14206;50.202;10.948;2023-05-07T08:55:55;23.20;63.60
26541;DHT22;14206;50.202;10.948;2023-05-07T08:58:21;23.70;62.20
26541;DHT22;14206;50.202;10.948;2023-05-07T09:00:50;24.10;59.90
26541;DHT22;14206;50.202;10.948;2023-05-07T09:03:19;24.40;59.90
26541;DHT22;14206;50.202;10.948;2023-05-07T09:05:49;24.70;58.20
26541;DHT22;14206;50.202;10.948;2023-05-07T09:08:18;24.80;57.70
26541;DHT22;14206;50.202;10.948;2023-05-07T09:10:48;24.80;58.40
26541;DHT22;14206;50.202;10.948;2023-05-07T09:13:15;25.00;58.50
26541;DHT22;14206;50.202;10.948;2023-05-07T09:15:45;25.40;57.80
26541;DHT22;14206;50.202;10.948;2023-05-07T09:18:12;26.10;58.30
26541;DHT22;14206;50.202;10.948;2023-05-07T09:20:44;26.90;56.00
26541;DHT22;14206;50.202;10.948;2023-05-07T09:23:11;27.70;53.40
26541;DHT22;14206;50.202;10.948;2023-05-07T09:25:38;28.30;52.60
26541;DHT22;14206;50.202;10.948;2023-05-07T09:28:14;28.50;52.90
26541;DHT22;14206;50.202;10.948;2023-05-07T09:30:41;28.60;52.60
26541;DHT22;14206;50.202;10.948;2023-05-07T09:33:11;28.70;51.50
26541;DHT22;14206;50.202;10.948;2023-05-07T09:35:41;28.90;52.10
26541;DHT22;14206;50.202;10.948;2023-05-07T09:38:13;29.00;51.30
26541;DHT22;14206;50.202;10.948;2023-05-07T09:40:40;28.90;51.20
26541;DHT22;14206;50.202;10.948;2023-05-07T09:43:13;28.80;50.80
26541;DHT22;14206;50.202;10.948;2023-05-07T09:45:46;28.40;49.40
26541;DHT22;14206;50.202;10.948;2023-05-07T09:48:20;27.90;50.60
26541;DHT22;14206;50.202;10.948;2023-05-07T09:50:51;27.80;51.60
26541;DHT22;14206;50.202;10.948;2023-05-07T09:53:25;27.50;51.40
26541;DHT22;14206;50.202;10.948;2023-05-07T09:55:53;27.40;51.60
26541;DHT22;14206;50.202;10.948;2023-05-07T09:58:21;27.30;52.60
26541;DHT22;14206;50.202;10.948;2023-05-07T10:00:50;27.60;51.70
26541;DHT22;14206;50.202;10.948;2023-05-07T10:03:19;27.90;50.10
26541;DHT22;14206;50.202;10.948;2023-05-07T10:05:59;27.70;50.50
26541;DHT22;14206;50.202;10.948;2023-05-07T10:08:26;27.50;50.70
26541;DHT22;14206;50.202;10.948;2023-05-07T10:10:56;27.40;50.60
26541;DHT22;14206;50.202;10.948;2023-05-07T10:13:27;27.10;50.70
26541;DHT22;14206;50.202;10.948;2023-05-07T10:15:57;27.00;50.30
26541;DHT22;14206;50.202;10.948;2023-05-07T10:18:28;27.00;50.40
26541;DHT22;14206;50.202;10.948;2023-05-07T10:21:08;27.20;50.50
26541;DHT22;14206;50.202;10.948;2023-05-07T10:23:36;27.10;50.60
26541;DHT22;14206;50.202;10.948;2023-05-07T10:26:06;27.00;51.90
26541;DHT22;14206;50.202;10.948;2023-05-07T10:28:41;27.30;53.00
26541;DHT22;14206;50.202;10.948;2023-05-07T10:33:46;27.50;52.30
26541;DHT22;14206;50.202;10.948;2023-05-07T10:36:14;27.40;51.00
26541;DHT22;14206;50.202;10.948;2023-05-07T10:38:42;27.30;52.40
26541;DHT22;14206;50.202;10.948;2023-05-07T10:41:10;27.60;52.10
26541;DHT22;14206;50.202;10.948;2023-05-07T10:43:42;27.70;51.60
26541;DHT22;14206;50.202;10.948;2023-05-07T10:52:17;27.70;51.70
26541;DHT22;14206;50.202;10.948;2023-05-07T10:57:51;27.20;52.40
26541;DHT22;14206;50.202;10.948;2023-05-07T11:03:09;26.50;53.10
26541;DHT22;14206;50.202;10.948;2023-05-07T11:05:46;26.30;53.20
26541;DHT22;14206;50.202;10.948;2023-05-07T11:08:22;26.10;54.50
26541;DHT22;14206;50.202;10.948;2023-05-07T11:10:59;26.10;54.40
26541;DHT22;14206;50.202;10.948;2023-05-07T11:16:23;26.30;54.70
26541;DHT22;14206;50.202;10.948;2023-05-07T11:19:00;26.60;53.70
26541;DHT22;14206;50.202;10.948;2023-05-07T11:24:14;27.00;52.80
26541;DHT22;14206;50.202;10.948;2023-05-07T11:26:49;27.10;52.10
26541;DHT22;14206;50.202;10.948;2023-05-07T11:29:20;27.00;52.40
26541;DHT22;14206;50.202;10.948;2023-05-07T11:31:53;27.00;53.00
26541;DHT22;14206;50.202;10.948;2023-05-07T11:34:25;27.10;52.70
26541;DHT22;14206;50.202;10.948;2023-05-07T11:36:55;27.30;52.00
26541;DHT22;14206;50.202;10.948;2023-05-07T11:39:34;27.30;51.80
26541;DHT22;14206;50.202;10.948;2023-05-07T11:42:02;27.70;51.20
26541;DHT22;14206;50.202;10.948;2023-05-07T11:44:43;28.40;50.00
26541;DHT22;14206;50.202;10.948;2023-05-07T11:47:11;28.50;50.30
26541;DHT22;14206;50.202;10.948;2023-05-07T11:49:38;28.50;48.50
26541;DHT22;14206;50.202;10.948;2023-05-07T11:52:05;28.10;49.00
26541;DHT22;14206;50.202;10.948;2023-05-07T11:54:37;27.80;50.50
26541;DHT22;14206;50.202;10.948;2023-05-07T11:57:04;27.70;50.90
26541;DHT22;14206;50.202;10.948;2023-05-07T11:59:38;28.00;49.40
26541;DHT22;14206;50.202;10.948;2023-05-07T12:02:07;28.50;49.50
26541;DHT22;14206;50.202;10.948;2023-05-07T12:04:34;29.30;48.40
26541;DHT22;14206;50.202;10.948;2023-05-07T12:07:02;29.80;47.60
26541;DHT22;14206;50.202;10.948;2023-05-07T12:09:28;30.30;46.50
26541;DHT22;14206;50.202;10.948;2023-05-07T12:11:56;30.80;46.40
26541;DHT22;14206;50.202;10.948;2023-05-07T12:14:27;31.30;45.60
26541;DHT22;14206;50.202;10.948;2023-05-07T12:16:55;31.70;45.40
26541;DHT22;14206;50.202;10.948;2023-05-07T12:19:22;32.10;43.70
26541;DHT22;14206;50.202;10.948;2023-05-07T12:21:49;32.30;42.60
26541;DHT22;14206;50.202;10.948;2023-05-07T12:24:17;32.40;43.00
26541;DHT22;14206;50.202;10.948;2023-05-07T12:26:48;31.60;43.30
26541;DHT22;14206;50.202;10.948;2023-05-07T12:29:15;30.60;45.80
26541;DHT22;14206;50.202;10.948;2023-05-07T12:31:42;29.70;47.50
26541;DHT22;14206;50.202;10.948;2023-05-07T12:34:13;29.00;48.20
26541;DHT22;14206;50.202;10.948;2023-05-07T12:36:40;28.80;48.30
26541;DHT22;14206;50.202;10.948;2023-05-07T12:39:08;28.90;48.00
26541;DHT22;14206;50.202;10.948;2023-05-07T12:42:04;28.50;48.50
26541;DHT22;14206;50.202;10.948;2023-05-07T12:44:32;27.90;47.40
26541;DHT22;14206;50.202;10.948;2023-05-07T12:47:02;27.40;49.40
26541;DHT22;14206;50.202;10.948;2023-05-07T12:49:29;26.80;49.80
26541;DHT22;14206;50.202;10.948;2023-05-07T12:51:56;26.30;50.90
26541;DHT22;14206;50.202;10.948;2023-05-07T12:54:31;26.10;52.00
26541;DHT22;14206;50.202;10.948;2023-05-07T12:57:03;25.90;51.80
26541;DHT22;14206;50.202;10.948;2023-05-07T12:59:36;25.60;52.50
26541;DHT22;14206;50.202;10.948;2023-05-07T13:02:04;25.40;53.00
26541;DHT22;14206;50.202;10.948;2023-05-07T13:04:31;25.30;54.30
26541;DHT22;14206;50.202;10.948;2023-05-07T13:06:58;25.30;53.90
26541;DHT22;14206;50.202;10.948;2023-05-07T13:09:25;25.20;52.90
26541;DHT22;14206;50.202;10.948;2023-05-07T13:11:52;25.30;53.40
26541;DHT22;14206;50.202;10.948;2023-05-07T13:14:19;25.30;54.30
26541;DHT22;14206;50.202;10.948;2023-05-07T13:16:47;25.20;54.70
26541;DHT22;14206;50.202;10.948;2023-05-07T13:19:15;25.10;54.40
26541;DHT22;14206;50.202;10.948;2023-05-07T13:21:42;25.00;53.20
26541;DHT22;14206;50.202;10.948;2023-05-07T13:24:08;24.80;54.80
26541;DHT22;14206;50.202;10.948;2023-05-07T13:26:35;24.70;53.90
26541;DHT22;14206;50.202;10.948;2023-05-07T13:29:02;24.60;54.70
26541;DHT22;14206;50.202;10.948;2023-05-07T13:31:29;24.40;55.30
26541;DHT22;14206;50.202;10.948;2023-05-07T13:33:57;24.30;55.80
26541;DHT22;14206;50.202;10.948;2023-05-07T13:36:24;24.10;55.90
26541;DHT22;14206;50.202;10.948;2023-05-07T13:38:50;24.10;56.00
26541;DHT22;14206;50.202;10.948;2023-05-07T13:41:18;24.00;55.70
26541;DHT22;14206;50.202;10.948;2023-05-07T13:43:45;24.00;56.40
26541;DHT22;14206;50.202;10.948;2023-05-07T13:46:12;24.10;57.20
26541;DHT22;14206;50.202;10.948;2023-05-07T13:48:39;24.10;57.00
26541;DHT22;14206;50.202;10.948;2023-05-07T13:51:05;24.10;56.10
26541;DHT22;14206;50.202;10.948;2023-05-07T13:53:32;24.10;56.30
26541;DHT22;14206;50.202;10.948;2023-05-07T13:55:59;24.20;56.90
26541;DHT22;14206;50.202;10.948;2023-05-07T13:58:26;24.30;57.50
26541;DHT22;14206;50.202;10.948;2023-05-07T14:00:52;24.30;57.60
26541;DHT22;14206;50.202;10.948;2023-05-07T14:03:19;24.20;57.00
26541;DHT22;14206;50.202;10.948;2023-05-07T14:05:47;24.10;58.10
26541;DHT22;14206;50.202;10.948;2023-05-07T14:08:16;24.00;58.10
26541;DHT22;14206;50.202;10.948;2023-05-07T14:10:45;24.00;59.20
26541;DHT22;14206;50.202;10.948;2023-05-07T14:13:12;23.90;59.40
26541;DHT22;14206;50.202;10.948;2023-05-07T14:15:39;23.90;60.30
26541;DHT22;14206;50.202;10.948;2023-05-07T14:18:07;23.70;59.60
26541;DHT22;14206;50.202;10.948;2023-05-07T14:20:33;23.50;59.80
26541;DHT22;14206;50.202;10.948;2023-05-07T14:23:03;23.30;60.10
26541;DHT22;14206;50.202;10.948;2023-05-07T14:25:30;23.20;61.20
26541;DHT22;14206;50.202;10.948;2023-05-07T14:27:56;23.00;63.10
26541;DHT22;14206;50.202;10.948;2023-05-07T14:30:23;22.90;61.60
26541;DHT22;14206;50.202;10.948;2023-05-07T14:32:51;22.70;61.00
26541;DHT22;14206;50.202;10.948;2023-05-07T14:35:18;22.50;62.10
26541;DHT22;14206;50.202;10.948;2023-05-07T14:37:45;22.30;63.00
26541;DHT22;14206;50.202;10.948;2023-05-07T14:40:12;22.00;63.90
26541;DHT22;14206;50.202;10.948;2023-05-07T14:42:39;22.00;64.40
26541;DHT22;14206;50.202;10.948;2023-05-07T14:45:07;21.90;64.10
26541;DHT22;14206;50.202;10.948;2023-05-07T14:47:34;21.80;65.10
26541;DHT22;14206;50.202;10.948;2023-05-07T14:50:01;21.80;65.00
26541;DHT22;14206;50.202;10.948;2023-05-07T14:52:28;21.70;64.40
26541;DHT22;14206;50.202;10.948;2023-05-07T14:54:55;21.70;64.80
26541;DHT22;14206;50.202;10.948;2023-05-07T14:57:22;21.60;64.80
26541;DHT22;14206;50.202;10.948;2023-05-07T14:59:48;21.40;64.50
26541;DHT22;14206;50.202;10.948;2023-05-07T15:02:15;21.30;65.60
26541;DHT22;14206;50.202;10.948;2023-05-07T15:04:47;21.30;65.00
26541;DHT22;14206;50.202;10.948;2023-05-07T15:07:15;21.20;65.20
26541;DHT22;14206;50.202;10.948;2023-05-07T15:09:42;21.20;65.20
26541;DHT22;14206;50.202;10.948;2023-05-07T15:12:09;21.10;66.40
26541;DHT22;14206;50.202;10.948;2023-05-07T15:14:38;21.00;66.20
26541;DHT22;14206;50.202;10.948;2023-05-07T15:17:05;20.90;66.40
26541;DHT22;14206;50.202;10.948;2023-05-07T15:19:32;20.90;66.20
26541;DHT22;14206;50.202;10.948;2023-05-07T15:21:59;20.90;66.10
26541;DHT22;14206;50.202;10.948;2023-05-07T15:24:29;20.90;66.90
26541;DHT22;14206;50.202;10.948;2023-05-07T15:26:56;20.90;66.60
26541;DHT22;14206;50.202;10.948;2023-05-07T15:29:25;20.90;65.90
26541;DHT22;14206;50.202;10.948;2023-05-07T15:31:51;20.90;65.90
26541;DHT22;14206;50.202;10.948;2023-05-07T15:34:20;20.90;66.30
26541;DHT22;14206;50.202;10.948;2023-05-07T15:36:47;20.80;66.10
26541;DHT22;14206;50.202;10.948;2023-05-07T15:39:15;20.70;66.30
26541;DHT22;14206;50.202;10.948;2023-05-07T15:41:42;20.50;66.60
26541;DHT22;14206;50.202;10.948;2023-05-07T15:44:09;20.50;66.20
26541;DHT22;14206;50.202;10.948;2023-05-07T15:46:36;20.50;66.60
26541;DHT22;14206;50.202;10.948;2023-05-07T15:49:03;20.40;67.30